Time;durP1;ratioP1;P1;durP2;ratioP2;P2;SDS_P1;SDS_P2;PMS_P1;PMS_P2;Temp;Humidity;BMP_temperature;BMP_pressure;BME280_temperature;BME280_humidity;BME280_pressure;Samples;Min_cycle;Max_cycle;Signal;HPM_P1;HPM_P2
2022/10/21 00:00:34;;;;;;;15.43;13.30;;;19.20;71.20;;;;;;5043564;28;20565;-54
2022/10/21 00:03:00;;;;;;;14.10;12.57;;;19.30;70.90;;;;;;5041718;28;20934;-55
2022/10/21 00:05:26;;;;;;;13.30;11.60;;;19.30;71.00;;;;;;5044392;28;20235;-53
2022/10/21 00:07:51;;;;;;;20.70;14.40;;;19.30;70.90;;;;;;5045284;28;20204;-55
2022/10/21 00:10:17;;;;;;;16.20;13.70;;;19.00;72.20;;;;;;5043517;28;20193;-53
2022/10/21 00:12:42;;;;;;;14.33;12.60;;;19.20;70.80;;;;;;5046871;28;20207;-54
2022/10/21 00:15:09;;;;;;;15.00;13.40;;;19.30;70.10;;;;;;5048015;28;20195;-51
2022/10/21 00:17:37;;;;;;;16.63;13.97;;;19.50;69.20;;;;;;5041810;28;20200;-50
2022/10/21 00:20:08;;;;;;;15.70;13.70;;;19.40;69.80;;;;;;5047502;28;20443;-53
2022/10/21 00:22:34;;;;;;;16.90;12.90;;;19.40;69.20;;;;;;5038262;28;20442;-53
2022/10/21 00:24:59;;;;;;;15.80;13.40;;;19.50;68.80;;;;;;5037440;28;20509;-53
2022/10/21 00:27:25;;;;;;;13.57;12.03;;;19.60;68.50;;;;;;5037463;28;20456;-53
2022/10/21 00:29:51;;;;;;;18.43;13.30;;;19.60;68.20;;;;;;5037763;28;20199;-53
2022/10/21 00:32:17;;;;;;;15.00;13.07;;;19.60;68.00;;;;;;5047675;28;20918;-54
2022/10/21 00:34:42;;;;;;;15.33;13.07;;;19.70;68.00;;;;;;5042639;28;20189;-54
2022/10/21 00:37:09;;;;;;;17.23;11.43;;;19.70;68.10;;;;;;5039870;28;20609;-52
2022/10/21 00:39:36;;;;;;;15.10;10.93;;;19.70;68.00;;;;;;5038676;28;20325;-51
2022/10/21 00:42:02;;;;;;;19.90;11.40;;;19.70;67.80;;;;;;5041827;28;20506;-53
2022/10/21 00:44:28;;;;;;;14.80;12.27;;;19.70;67.80;;;;;;5045278;28;20885;-52
2022/10/21 00:47:16;;;;;;;13.67;12.07;;;19.70;67.70;;;;;;5043303;28;20446;-55
2022/10/21 00:49:57;;;;;;;16.63;11.87;;;19.70;67.60;;;;;;5030142;28;20213;-53
2022/10/21 00:52:23;;;;;;;15.77;10.97;;;19.70;67.60;;;;;;5045830;28;20809;-54
2022/10/21 00:54:52;;;;;;;18.77;11.60;;;19.70;67.60;;;;;;5047175;28;20450;-53
2022/10/21 00:57:19;;;;;;;21.67;12.13;;;19.70;68.10;;;;;;5041888;28;20487;-53
2022/10/21 00:59:53;;;;;;;19.07;12.47;;;19.60;68.20;;;;;;5050144;28;20431;-53
2022/10/21 01:02:20;;;;;;;17.23;12.80;;;19.60;68.30;;;;;;5049867;28;20435;-54
2022/10/21 01:04:50;;;;;;;15.13;13.00;;;19.60;68.30;;;;;;5048378;28;20443;-54
2022/10/21 01:07:15;;;;;;;14.70;13.13;;;19.60;68.40;;;;;;5047933;28;20500;-53
2022/10/21 01:09:41;;;;;;;16.20;12.17;;;19.50;68.00;;;;;;5050721;28;20439;-52
2022/10/21 01:12:13;;;;;;;14.73;12.13;;;19.50;68.10;;;;;;5044028;28;20193;-54
2022/10/21 01:15:01;;;;;;;15.60;11.90;;;19.50;68.00;;;;;;5046529;28;20188;-54
2022/10/21 01:17:46;;;;;;;14.03;12.43;;;19.50;67.80;;;;;;5043481;28;20459;-54
2022/10/21 01:20:27;;;;;;;16.57;11.97;;;19.50;67.70;;;;;;5043272;28;20807;-53
2022/10/21 01:23:07;;;;;;;14.93;11.10;;;19.50;67.70;;;;;;5048315;28;20451;-53
2022/10/21 01:25:51;;;;;;;13.30;12.00;;;19.40;67.70;;;;;;5042392;28;20446;-53
2022/10/21 01:28:38;;;;;;;14.87;12.20;;;19.40;67.70;;;;;;5047512;28;20447;-51
2022/10/21 01:31:24;;;;;;;14.70;10.80;;;19.10;68.30;;;;;;5047498;28;20484;-51
2022/10/21 01:34:18;;;;;;;13.30;11.40;;;19.00;69.00;;;;;;5044910;28;20864;-53
2022/10/21 01:37:16;;;;;;;16.53;12.80;;;19.00;69.30;;;;;;5026835;28;20574;-52
2022/10/21 01:40:05;;;;;;;12.70;10.73;;;19.00;69.20;;;;;;5045835;28;20451;-51
2022/10/21 01:42:46;;;;;;;18.20;12.17;;;19.10;69.10;;;;;;5049380;28;20899;-53
2022/10/21 01:45:35;;;;;;;13.70;11.93;;;19.10;68.90;;;;;;5051659;28;20530;-53
2022/10/21 01:48:18;;;;;;;13.93;11.80;;;19.10;68.90;;;;;;5047205;28;20485;-51
2022/10/21 01:50:53;;;;;;;14.60;12.70;;;19.10;68.90;;;;;;5045750;28;20431;-53
2022/10/21 01:53:23;;;;;;;14.30;12.27;;;19.20;69.10;;;;;;5049649;28;20437;-52
2022/10/21 01:55:51;;;;;;;14.77;12.20;;;19.20;69.10;;;;;;5047939;28;20470;-53
2022/10/21 01:58:23;;;;;;;14.83;11.50;;;19.20;69.10;;;;;;5043959;28;20846;-53
2022/10/21 02:00:52;;;;;;;13.73;12.20;;;19.20;69.10;;;;;;5048981;28;20454;-53
2022/10/21 02:03:31;;;;;;;15.17;12.00;;;19.10;69.10;;;;;;5050417;28;20510;-53
2022/10/21 02:05:56;;;;;;;19.57;11.60;;;19.00;69.70;;;;;;5050312;28;20494;-52
2022/10/21 02:08:22;;;;;;;18.03;12.83;;;18.90;70.20;;;;;;5050051;28;20447;-52
2022/10/21 02:10:51;;;;;;;17.20;12.27;;;18.90;70.50;;;;;;5046269;28;20220;-52
2022/10/21 02:13:24;;;;;;;16.50;12.10;;;18.60;71.60;;;;;;5043433;28;20444;-52
2022/10/21 02:15:54;;;;;;;16.30;12.07;;;18.40;72.90;;;;;;5038524;28;20474;-53
2022/10/21 02:18:23;;;;;;;19.33;12.00;;;18.10;74.60;;;;;;5049405;28;20441;-52
2022/10/21 02:20:54;;;;;;;14.00;12.53;;;18.10;75.00;;;;;;5050835;28;21005;-52
2022/10/21 02:23:30;;;;;;;14.47;12.97;;;18.00;75.70;;;;;;5048533;28;20818;-53
2022/10/21 02:25:55;;;;;;;16.80;11.90;;;18.10;75.90;;;;;;5048192;28;20427;-53
2022/10/21 02:28:21;;;;;;;18.17;11.87;;;18.00;75.90;;;;;;5045283;28;20461;-52
2022/10/21 02:31:08;;;;;;;13.90;12.40;;;18.00;76.30;;;;;;5048389;28;20296;-52
2022/10/21 02:33:48;;;;;;;21.50;12.17;;;18.00;76.70;;;;;;5044500;28;20238;-52
2022/10/21 02:36:24;;;;;;;17.63;12.40;;;17.90;77.50;;;;;;5034951;28;20589;-52
2022/10/21 02:38:58;;;;;;;19.03;17.03;;;18.00;77.30;;;;;;5048365;28;20447;-51
2022/10/21 02:41:27;;;;;;;19.73;13.73;;;18.00;77.40;;;;;;5048672;28;20501;-53
2022/10/21 02:43:59;;;;;;;16.70;12.03;;;18.10;76.60;;;;;;5049660;28;20435;-51
2022/10/21 02:46:25;;;;;;;21.23;11.90;;;18.20;76.10;;;;;;5049388;28;20953;-53
2022/10/21 02:48:52;;;;;;;18.30;12.93;;;18.00;76.50;;;;;;5047335;28;20438;-50
2022/10/21 02:51:17;;;;;;;15.00;12.23;;;18.10;76.50;;;;;;5047272;28;20829;-53
2022/10/21 02:53:43;;;;;;;20.07;12.33;;;18.20;76.20;;;;;;5042815;28;20430;-53
2022/10/21 02:56:09;;;;;;;15.87;13.40;;;18.10;76.10;;;;;;5041737;28;20224;-53
2022/10/21 02:58:34;;;;;;;17.73;12.60;;;18.20;76.30;;;;;;5045735;28;20192;-52
2022/10/21 03:01:00;;;;;;;16.43;12.10;;;18.10;76.00;;;;;;5045971;28;20641;-53
2022/10/21 03:03:28;;;;;;;14.47;11.10;;;17.80;77.20;;;;;;5048777;28;20194;-52
2022/10/21 03:05:54;;;;;;;14.60;12.63;;;17.90;77.30;;;;;;5044382;28;20184;-53
2022/10/21 03:08:19;;;;;;;17.03;12.77;;;17.70;78.70;;;;;;5043141;28;20466;-53
2022/10/21 03:10:48;;;;;;;17.33;12.50;;;17.50;79.70;;;;;;5048095;28;20201;-53
2022/10/21 03:13:13;;;;;;;15.80;12.97;;;17.60;79.60;;;;;;5050309;28;20192;-52
2022/10/21 03:15:39;;;;;;;17.37;13.03;;;17.60;79.60;;;;;;5047465;28;20520;-52
2022/10/21 03:18:04;;;;;;;16.70;12.77;;;17.80;79.10;;;;;;5047568;28;20664;-53
2022/10/21 03:20:30;;;;;;;18.30;12.53;;;17.60;79.20;;;;;;5045490;28;20216;-52
2022/10/21 03:22:56;;;;;;;17.00;13.30;;;17.40;80.20;;;;;;5039288;28;20193;-51
2022/10/21 03:25:21;;;;;;;16.93;12.37;;;17.10;82.50;;;;;;5044930;28;20189;-52
2022/10/21 03:27:49;;;;;;;14.10;12.30;;;16.90;84.00;;;;;;5044356;28;20193;-52
2022/10/21 03:30:14;;;;;;;14.07;12.40;;;16.90;84.50;;;;;;5044888;28;20204;-50
2022/10/21 03:32:40;;;;;;;14.50;12.70;;;16.90;84.60;;;;;;5041553;28;20962;-52
2022/10/21 03:35:06;;;;;;;13.70;12.00;;;17.10;83.50;;;;;;5040815;28;20246;-52
2022/10/21 03:37:32;;;;;;;17.93;12.80;;;16.90;84.20;;;;;;5045128;28;20323;-53
2022/10/21 03:39:58;;;;;;;17.90;14.07;;;16.80;85.50;;;;;;5044549;28;20525;-52
2022/10/21 03:42:23;;;;;;;19.87;14.00;;;16.70;86.20;;;;;;5048291;28;20205;-52
2022/10/21 03:44:49;;;;;;;15.80;13.23;;;16.90;86.10;;;;;;5046963;28;20473;-52
2022/10/21 03:47:14;;;;;;;15.97;11.87;;;17.00;85.30;;;;;;5039251;28;20207;-52
2022/10/21 03:49:40;;;;;;;14.40;12.13;;;17.10;84.50;;;;;;5043440;28;20223;-52
2022/10/21 03:52:05;;;;;;;17.77;11.43;;;17.10;84.50;;;;;;5038148;28;20196;-53
2022/10/21 03:54:31;;;;;;;15.23;11.70;;;17.20;84.70;;;;;;5041649;28;20718;-53
2022/10/21 03:56:56;;;;;;;15.37;11.60;;;17.30;84.30;;;;;;5043813;28;20224;-52
2022/10/21 03:59:22;;;;;;;17.17;11.07;;;17.60;82.60;;;;;;5043655;28;21150;-50
2022/10/21 04:01:48;;;;;;;14.90;11.60;;;17.70;82.00;;;;;;5040868;28;20201;-51
2022/10/21 04:04:13;;;;;;;13.10;11.57;;;17.70;81.80;;;;;;5044291;28;20193;-53
2022/10/21 04:06:39;;;;;;;14.40;11.43;;;17.80;81.80;;;;;;5045894;28;20196;-52
2022/10/21 04:09:04;;;;;;;13.13;11.33;;;17.80;81.10;;;;;;5048658;28;20212;-53
2022/10/21 04:11:30;;;;;;;19.60;11.70;;;17.90;80.70;;;;;;5044352;28;20189;-52
2022/10/21 04:13:56;;;;;;;15.57;11.53;;;18.00;80.30;;;;;;5046757;28;20193;-52
2022/10/21 04:16:22;;;;;;;11.87;10.17;;;18.10;79.60;;;;;;5044921;28;20286;-53
2022/10/21 04:18:48;;;;;;;22.10;10.80;;;18.00;79.90;;;;;;5043961;28;20192;-53
2022/10/21 04:21:13;;;;;;;15.10;10.50;;;18.10;80.30;;;;;;5041715;28;21306;-53
2022/10/21 04:23:39;;;;;;;13.07;9.57;;;18.00;81.30;;;;;;5045879;28;20470;-53
2022/10/21 04:26:05;;;;;;;13.30;10.60;;;18.10;80.30;;;;;;5045795;28;20191;-53
2022/10/21 04:28:32;;;;;;;19.70;10.43;;;18.20;79.70;;;;;;5047890;28;20589;-53
2022/10/21 04:30:58;;;;;;;14.23;10.33;;;18.40;78.60;;;;;;5045832;28;20521;-53
2022/10/21 04:33:23;;;;;;;17.50;9.70;;;18.60;77.60;;;;;;5047922;28;20521;-53
2022/10/21 04:35:49;;;;;;;15.53;10.63;;;18.40;78.00;;;;;;5047760;28;20699;-54
2022/10/21 04:38:14;;;;;;;17.60;9.50;;;18.50;78.10;;;;;;5049048;28;20725;-54
2022/10/21 04:40:40;;;;;;;12.17;10.30;;;18.80;78.00;;;;;;5045865;28;20215;-54
2022/10/21 04:43:06;;;;;;;13.80;8.37;;;19.00;77.40;;;;;;5042996;28;20193;-54
2022/10/21 04:45:32;;;;;;;11.90;10.20;;;19.20;76.70;;;;;;5054108;28;20215;-54
2022/10/21 04:47:57;;;;;;;14.20;10.23;;;19.30;75.90;;;;;;5049023;28;20632;-54
2022/10/21 04:50:23;;;;;;;11.87;9.93;;;19.40;74.90;;;;;;5050942;28;20275;-54
2022/10/21 04:52:48;;;;;;;16.50;11.00;;;19.40;73.90;;;;;;5046261;28;20216;-54
2022/10/21 04:55:14;;;;;;;12.80;8.83;;;19.40;73.60;;;;;;5047053;28;20193;-53
2022/10/21 04:57:40;;;;;;;11.40;9.57;;;19.40;73.10;;;;;;5044014;28;21796;-54
2022/10/21 05:00:06;;;;;;;14.87;9.17;;;19.40;73.00;;;;;;5046651;28;20188;-54
2022/10/21 05:02:32;;;;;;;15.03;10.03;;;19.30;73.10;;;;;;5047603;28;20196;-54
2022/10/21 05:04:57;;;;;;;11.23;9.30;;;19.30;73.30;;;;;;5041176;28;20532;-54
2022/10/21 05:07:23;;;;;;;10.73;8.20;;;19.30;73.20;;;;;;5047441;28;20265;-53
2022/10/21 05:09:49;;;;;;;11.13;8.03;;;19.50;73.00;;;;;;5050937;28;20652;-51
2022/10/21 05:12:14;;;;;;;10.30;8.73;;;19.50;72.90;;;;;;5048017;28;20207;-51
2022/10/21 05:14:40;;;;;;;10.03;8.20;;;19.50;73.00;;;;;;5051491;28;20200;-54
2022/10/21 05:17:05;;;;;;;8.83;7.93;;;19.50;73.50;;;;;;5045200;28;20625;-50
2022/10/21 05:19:31;;;;;;;15.40;9.10;;;19.50;72.90;;;;;;5041052;28;20200;-50
2022/10/21 05:21:57;;;;;;;11.57;9.17;;;19.30;73.90;;;;;;5043294;28;20196;-51
2022/10/21 05:24:22;;;;;;;11.33;8.23;;;19.40;74.20;;;;;;5049635;28;20238;-54
2022/10/21 05:26:48;;;;;;;12.30;8.43;;;19.50;74.20;;;;;;5043984;28;20197;-50
2022/10/21 05:29:14;;;;;;;15.63;8.10;;;19.60;73.70;;;;;;5049187;28;20287;-53
2022/10/21 05:31:39;;;;;;;8.50;7.50;;;19.70;73.50;;;;;;5046136;28;20263;-50
2022/10/21 05:34:05;;;;;;;8.30;7.37;;;19.70;73.40;;;;;;5034371;28;20200;-49
2022/10/21 05:36:30;;;;;;;11.93;8.20;;;19.70;73.80;;;;;;5043450;28;20293;-50
2022/10/21 05:38:56;;;;;;;9.13;7.80;;;19.70;73.00;;;;;;5052309;28;20592;-52
2022/10/21 05:41:21;;;;;;;11.20;8.17;;;19.70;73.10;;;;;;5047208;28;20248;-53
2022/10/21 05:43:47;;;;;;;18.67;8.27;;;19.80;72.80;;;;;;5046944;28;20199;-49
2022/10/21 05:46:12;;;;;;;10.27;8.80;;;19.90;72.50;;;;;;5045002;28;20536;-49
2022/10/21 05:48:38;;;;;;;10.87;7.97;;;19.90;72.70;;;;;;5040759;28;20204;-49
2022/10/21 05:51:04;;;;;;;10.77;7.73;;;19.90;73.00;;;;;;5046678;28;20547;-51
2022/10/21 05:53:30;;;;;;;12.50;6.87;;;19.90;73.40;;;;;;5051669;28;20241;-52
2022/10/21 05:56:00;;;;;;;10.70;7.57;;;19.80;73.80;;;;;;5052208;28;20538;-49
2022/10/21 05:58:27;;;;;;;10.20;8.40;;;19.80;74.10;;;;;;5051645;28;20294;-49
2022/10/21 06:00:53;;;;;;;13.60;9.60;;;19.70;74.40;;;;;;5034985;28;20777;-49
2022/10/21 06:03:23;;;;;;;13.93;9.90;;;19.80;74.30;;;;;;5048742;28;20446;-50
2022/10/21 06:05:49;;;;;;;11.17;9.07;;;19.90;73.90;;;;;;5035955;28;20424;-49
2022/10/21 06:08:16;;;;;;;11.23;7.20;;;19.90;73.70;;;;;;5032359;28;20800;-52
2022/10/21 06:10:42;;;;;;;10.83;6.67;;;19.90;74.00;;;;;;5030911;28;21240;-50
2022/10/21 06:13:08;;;;;;;6.60;5.73;;;19.80;75.20;;;;;;5032195;28;20439;-51
2022/10/21 06:15:34;;;;;;;10.60;5.77;;;19.90;75.40;;;;;;5043281;28;20467;-49
2022/10/21 06:18:00;;;;;;;10.00;5.60;;;19.70;76.10;;;;;;5031684;28;20193;-50
2022/10/21 06:20:25;;;;;;;15.30;6.03;;;19.70;76.60;;;;;;5032297;28;20428;-49
2022/10/21 06:22:51;;;;;;;10.23;5.43;;;19.60;77.80;;;;;;5032116;28;20194;-50
2022/10/21 06:25:17;;;;;;;9.93;5.30;;;19.30;79.00;;;;;;5032153;28;20201;-52
2022/10/21 06:27:42;;;;;;;13.40;5.67;;;19.40;79.10;;;;;;5031680;28;20271;-49
2022/10/21 06:30:08;;;;;;;7.67;5.10;;;19.30;80.00;;;;;;5032301;28;20679;-50
2022/10/21 06:32:34;;;;;;;10.17;4.77;;;19.50;79.90;;;;;;5031889;28;20200;-50
2022/10/21 06:35:00;;;;;;;13.13;5.87;;;19.10;81.00;;;;;;5032221;28;20428;-53
2022/10/21 06:37:26;;;;;;;13.73;7.53;;;19.30;81.30;;;;;;5029130;28;20351;-50
2022/10/21 06:39:51;;;;;;;14.33;6.37;;;19.50;79.80;;;;;;5046891;28;20420;-48
2022/10/21 06:42:17;;;;;;;8.37;4.37;;;19.50;78.60;;;;;;5031645;28;20193;-51
2022/10/21 06:44:43;;;;;;;11.90;8.27;;;19.40;79.60;;;;;;5031118;28;20216;-51
2022/10/21 06:47:08;;;;;;;13.40;6.93;;;19.40;79.30;;;;;;5030761;28;20186;-50
2022/10/21 06:49:34;;;;;;;14.23;8.17;;;19.50;78.90;;;;;;5032118;28;20196;-49
2022/10/21 06:51:59;;;;;;;9.97;6.70;;;19.50;78.70;;;;;;5031415;28;20189;-49
2022/10/21 06:54:25;;;;;;;11.03;7.37;;;19.70;78.00;;;;;;5031933;28;20193;-49
2022/10/21 06:56:51;;;;;;;8.20;5.70;;;19.70;78.20;;;;;;5030827;28;20228;-48
2022/10/21 06:59:17;;;;;;;13.30;7.47;;;19.60;78.60;;;;;;5032028;28;20197;-49
2022/10/21 07:01:42;;;;;;;14.00;6.77;;;19.60;79.10;;;;;;5031435;28;20197;-50
2022/10/21 07:04:09;;;;;;;8.80;6.30;;;19.60;78.50;;;;;;5029949;28;20649;-50
2022/10/21 07:06:35;;;;;;;10.90;7.13;;;19.70;78.50;;;;;;5030568;28;20200;-49
2022/10/21 07:09:00;;;;;;;12.13;7.97;;;19.60;79.10;;;;;;5031566;28;20431;-50
2022/10/21 07:11:27;;;;;;;14.50;7.70;;;19.70;78.80;;;;;;5031204;28;20311;-49
2022/10/21 07:13:53;;;;;;;14.30;8.20;;;19.80;77.80;;;;;;5031423;28;20228;-50
2022/10/21 07:16:23;;;;;;;13.80;8.40;;;19.80;77.30;;;;;;5041872;28;21020;-48
2022/10/21 07:18:49;;;;;;;11.23;9.50;;;19.90;77.00;;;;;;5030995;28;20452;-50
2022/10/21 07:21:17;;;;;;;10.77;8.20;;;20.00;76.50;;;;;;5031372;28;20845;-49
2022/10/21 07:23:44;;;;;;;13.47;7.63;;;20.00;76.90;;;;;;5031065;28;20221;-49
2022/10/21 07:26:10;;;;;;;10.60;7.43;;;20.10;76.00;;;;;;5030845;28;20554;-49
2022/10/21 07:28:36;;;;;;;11.17;6.67;;;20.10;76.30;;;;;;5030954;28;20511;-51
2022/10/21 07:31:04;;;;;;;10.57;7.40;;;20.00;76.70;;;;;;5029761;28;20192;-49
2022/10/21 07:33:29;;;;;;;12.37;7.03;;;19.90;77.00;;;;;;5030868;28;20438;-50
2022/10/21 07:36:07;;;;;;;10.77;7.20;;;19.90;77.50;;;;;;5030770;28;20837;-49
2022/10/21 07:38:33;;;;;;;10.53;6.80;;;19.90;77.90;;;;;;5036960;28;20209;-49
2022/10/21 07:40:59;;;;;;;13.77;7.80;;;19.80;78.20;;;;;;5038699;28;21063;-49
2022/10/21 07:43:25;;;;;;;9.43;6.67;;;19.70;78.70;;;;;;5030129;28;20193;-49
2022/10/21 07:45:50;;;;;;;7.87;6.93;;;19.50;80.10;;;;;;5030938;28;20824;-53
2022/10/21 07:48:16;;;;;;;9.43;6.90;;;19.70;80.00;;;;;;5030528;28;20323;-49
2022/10/21 07:50:41;;;;;;;9.97;7.53;;;19.70;79.50;;;;;;5030934;28;20201;-48
2022/10/21 07:53:07;;;;;;;10.70;7.40;;;19.70;79.80;;;;;;5030360;28;20272;-49
2022/10/21 07:55:33;;;;;;;11.17;7.63;;;19.80;79.10;;;;;;5030958;28;20197;-50
2022/10/21 07:57:58;;;;;;;10.90;7.47;;;19.80;79.30;;;;;;5032998;28;20211;-51
2022/10/21 08:00:24;;;;;;;12.17;8.10;;;19.70;79.70;;;;;;5035139;28;20189;-50
2022/10/21 08:02:54;;;;;;;14.67;7.40;;;19.70;80.70;;;;;;5034352;28;20201;-49
2022/10/21 08:05:20;;;;;;;9.93;8.17;;;19.60;80.30;;;;;;5035198;28;20197;-49
2022/10/21 08:07:45;;;;;;;16.40;9.03;;;19.60;80.90;;;;;;5033939;28;20474;-50
2022/10/21 08:10:11;;;;;;;12.47;8.67;;;19.50;80.30;;;;;;5034868;28;20419;-50
2022/10/21 08:12:37;;;;;;;19.60;8.80;;;19.40;80.50;;;;;;5034086;28;20197;-49
2022/10/21 08:15:03;;;;;;;10.03;8.17;;;19.40;80.20;;;;;;5043940;28;20226;-49
2022/10/21 08:17:28;;;;;;;17.53;8.03;;;19.30;80.90;;;;;;5035964;28;20612;-52
2022/10/21 08:19:55;;;;;;;11.00;7.97;;;19.30;81.30;;;;;;5034589;28;20431;-51
2022/10/21 08:22:21;;;;;;;11.73;7.80;;;19.20;81.40;;;;;;5033759;28;20209;-49
2022/10/21 08:24:46;;;;;;;12.77;6.43;;;19.10;82.40;;;;;;5032982;28;20426;-50
2022/10/21 08:27:12;;;;;;;9.63;6.40;;;19.00;83.70;;;;;;5033641;28;20428;-49
2022/10/21 08:29:38;;;;;;;9.93;7.30;;;19.10;83.70;;;;;;5034598;28;20220;-49
2022/10/21 08:32:04;;;;;;;11.50;7.50;;;19.00;83.30;;;;;;5033442;28;20193;-48
2022/10/21 08:34:29;;;;;;;11.70;5.93;;;19.00;84.00;;;;;;5034368;28;20610;-48
2022/10/21 08:36:55;;;;;;;7.87;7.10;;;19.00;84.90;;;;;;5033307;28;20479;-52
2022/10/21 08:39:23;;;;;;;11.73;6.80;;;19.00;85.50;;;;;;5047718;28;20199;-49
2022/10/21 08:42:09;;;;;;;8.37;6.20;;;19.10;84.90;;;;;;5034748;28;20205;-49
2022/10/21 08:44:55;;;;;;;8.67;5.60;;;19.30;84.30;;;;;;5034202;28;20428;-49
2022/10/21 08:47:32;;;;;;;9.60;4.93;;;19.30;84.30;;;;;;5033719;28;20769;-49
2022/10/21 08:50:02;;;;;;;12.47;6.63;;;19.50;83.80;;;;;;5033852;28;21010;-49
2022/10/21 08:52:48;;;;;;;9.73;6.10;;;19.60;83.30;;;;;;5032361;28;20775;-53
2022/10/21 08:55:27;;;;;;;8.93;5.40;;;19.70;82.40;;;;;;5043357;28;20990;-50
2022/10/21 08:57:53;;;;;;;8.20;5.60;;;19.80;81.90;;;;;;5053601;28;20769;-51
2022/10/21 09:00:22;;;;;;;6.67;5.43;;;20.00;80.90;;;;;;5053788;28;20427;-48
2022/10/21 09:02:54;;;;;;;8.40;5.60;;;20.20;80.20;;;;;;5053101;28;20933;-50
2022/10/21 09:05:34;;;;;;;10.90;5.30;;;20.20;79.90;;;;;;5053986;28;20455;-53
2022/10/21 09:08:32;;;;;;;8.10;4.97;;;20.30;79.50;;;;;;5051954;28;20449;-48
2022/10/21 09:10:57;;;;;;;7.20;5.27;;;20.30;79.40;;;;;;5009408;28;20918;-49
2022/10/21 09:13:57;;;;;;;8.60;4.50;;;20.30;79.90;;;;;;5053202;28;20441;-50
2022/10/21 09:16:28;;;;;;;7.40;5.47;;;20.30;80.40;;;;;;5033034;28;20221;-49
2022/10/21 09:19:08;;;;;;;8.93;6.23;;;20.20;81.10;;;;;;5031991;28;20435;-49
2022/10/21 09:22:00;;;;;;;9.60;6.17;;;20.20;81.50;;;;;;5033047;28;20435;-49
2022/10/21 09:24:34;;;;;;;7.47;6.00;;;20.30;80.90;;;;;;5043241;28;20435;-49
2022/10/21 09:27:03;;;;;;;7.20;6.50;;;20.40;80.60;;;;;;5052177;28;20431;-48
2022/10/21 09:29:43;;;;;;;8.27;7.47;;;20.40;80.80;;;;;;5053304;28;20454;-52
2022/10/21 09:32:26;;;;;;;9.67;6.80;;;20.40;81.00;;;;;;5052870;28;20434;-51
2022/10/21 09:35:06;;;;;;;11.60;6.27;;;20.40;81.00;;;;;;5053443;28;20425;-49
2022/10/21 09:37:56;;;;;;;7.87;7.07;;;20.50;81.30;;;;;;5051803;28;20504;-51
2022/10/21 09:40:24;;;;;;;12.77;7.57;;;20.50;80.80;;;;;;5019501;28;20454;-49
2022/10/21 09:42:57;;;;;;;17.23;11.57;;;20.50;80.60;;;;;;5032632;28;20435;-49
2022/10/21 09:45:39;;;;;;;16.87;12.00;;;20.60;80.70;;;;;;5045543;28;20423;-51
2022/10/21 09:48:16;;;;;;;15.53;11.50;;;20.70;80.50;;;;;;5035099;28;20486;-49
2022/10/21 09:50:44;;;;;;;15.93;10.20;;;20.80;80.50;;;;;;5032885;28;20432;-49
2022/10/21 09:53:32;;;;;;;24.60;16.63;;;20.80;80.40;;;;;;5032308;28;20428;-50
2022/10/21 09:56:05;;;;;;;15.77;11.17;;;20.90;80.70;;;;;;5032538;28;20991;-48
2022/10/21 09:58:36;;;;;;;14.33;10.20;;;20.90;80.20;;;;;;5032348;28;20428;-48
2022/10/21 10:01:04;;;;;;;13.50;9.80;;;21.00;79.80;;;;;;5032536;28;20440;-53
2022/10/21 10:03:33;;;;;;;19.40;9.17;;;21.00;79.60;;;;;;5032312;28;20444;-53
2022/10/21 10:06:00;;;;;;;10.50;6.87;;;21.00;79.50;;;;;;5032262;28;20730;-49
2022/10/21 10:08:31;;;;;;;9.27;7.30;;;21.10;79.30;;;;;;5032057;28;20452;-52
2022/10/21 10:11:07;;;;;;;11.57;6.90;;;21.10;78.80;;;;;;5031238;28;20431;-53
2022/10/21 10:13:33;;;;;;;7.63;6.37;;;21.10;78.90;;;;;;5032141;28;20514;-49
2022/10/21 10:16:26;;;;;;;8.87;5.40;;;21.10;78.80;;;;;;5042614;28;20471;-51
2022/10/21 10:19:21;;;;;;;6.80;5.70;;;21.20;78.90;;;;;;5032104;28;20514;-52
2022/10/21 10:22:06;;;;;;;6.43;4.23;;;21.20;78.20;;;;;;5031724;28;20898;-53
2022/10/21 10:24:32;;;;;;;6.47;3.90;;;21.10;78.10;;;;;;5032174;28;20490;-52
2022/10/21 10:27:22;;;;;;;6.50;3.40;;;20.80;77.10;;;;;;5031302;28;20846;-53
2022/10/21 10:29:54;;;;;;;10.20;3.17;;;20.50;78.20;;;;;;5031821;28;20267;-50
2022/10/21 10:32:23;;;;;;;6.53;3.57;;;20.50;77.80;;;;;;5038967;28;20906;-52
2022/10/21 10:34:52;;;;;;;4.33;2.90;;;20.40;78.40;;;;;;5051921;28;20480;-52
2022/10/21 10:37:25;;;;;;;7.33;2.53;;;20.50;77.90;;;;;;5050724;28;20942;-53
2022/10/21 10:39:56;;;;;;;4.00;3.10;;;20.50;77.50;;;;;;5047959;28;20431;-52
2022/10/21 10:42:26;;;;;;;7.57;2.73;;;20.30;77.10;;;;;;5031422;28;20452;-52
2022/10/21 10:45:25;;;;;;;6.17;2.57;;;20.40;77.90;;;;;;5031819;28;20485;-49
2022/10/21 10:47:59;;;;;;;3.77;2.57;;;20.20;78.50;;;;;;5014264;28;20510;-52
2022/10/21 10:50:45;;;;;;;3.63;2.50;;;20.20;77.90;;;;;;5031800;28;20473;-53
2022/10/21 10:53:26;;;;;;;7.57;3.33;;;20.20;78.80;;;;;;5031219;28;20841;-54
2022/10/21 10:55:57;;;;;;;4.33;3.00;;;20.30;78.50;;;;;;5031065;28;20490;-53
2022/10/21 10:58:26;;;;;;;5.80;2.90;;;20.40;77.90;;;;;;5031384;28;20432;-50
2022/10/21 11:00:57;;;;;;;3.97;2.63;;;20.50;77.30;;;;;;5031697;28;20935;-53
2022/10/21 11:03:28;;;;;;;5.67;2.80;;;20.80;76.30;;;;;;5031357;28;20424;-50
2022/10/21 11:06:05;;;;;;;7.60;3.20;;;20.90;75.50;;;;;;5029501;28;20435;-53
2022/10/21 11:08:42;;;;;;;6.13;2.47;;;20.80;75.30;;;;;;5031041;28;20451;-54
2022/10/21 11:11:17;;;;;;;4.27;2.50;;;21.10;75.00;;;;;;5031475;28;20512;-53
2022/10/21 11:13:42;;;;;;;4.47;2.53;;;21.20;74.50;;;;;;5030806;28;20513;-53
2022/10/21 11:16:31;;;;;;;4.13;3.30;;;21.40;74.10;;;;;;5042077;28;20479;-51
2022/10/21 11:19:12;;;;;;;6.10;3.23;;;21.50;74.00;;;;;;5031257;28;20606;-54
2022/10/21 11:21:40;;;;;;;6.53;2.80;;;21.70;73.30;;;;;;5030706;28;20443;-53
2022/10/21 11:24:20;;;;;;;5.90;3.03;;;21.70;72.90;;;;;;5031052;28;20795;-50
2022/10/21 11:26:57;;;;;;;9.43;3.13;;;21.60;72.00;;;;;;5030245;28;20785;-53
2022/10/21 11:29:35;;;;;;;5.93;2.70;;;21.80;72.50;;;;;;5031515;28;20881;-54
2022/10/21 11:32:48;;;;;;;6.97;2.63;;;21.80;72.50;;;;;;5028619;28;20430;-53
2022/10/21 11:35:32;;;;;;;3.73;3.20;;;21.90;72.60;;;;;;4950129;28;20436;-53
2022/10/21 11:38:27;;;;;;;10.90;3.50;;;22.00;72.70;;;;;;5032134;28;20875;-54
2022/10/21 11:41:05;;;;;;;9.07;3.00;;;22.00;72.20;;;;;;5030586;28;20443;-53
2022/10/21 11:43:40;;;;;;;4.40;2.83;;;22.00;71.90;;;;;;5030204;28;20487;-54
2022/10/21 11:46:20;;;;;;;4.80;2.73;;;22.00;72.00;;;;;;5030673;28;20467;-53
2022/10/21 11:48:56;;;;;;;6.97;2.67;;;22.00;71.70;;;;;;5030653;28;20515;-54
2022/10/21 11:51:37;;;;;;;7.30;3.07;;;22.10;71.70;;;;;;5031040;28;20868;-54
2022/10/21 11:54:16;;;;;;;5.27;2.47;;;22.10;72.20;;;;;;5030832;28;20440;-54
2022/10/21 11:56:47;;;;;;;4.53;2.23;;;22.20;71.90;;;;;;5038140;28;20470;-50
2022/10/21 11:59:44;;;;;;;8.30;2.77;;;22.20;70.70;;;;;;5049185;28;20435;-54
2022/10/21 12:02:36;;;;;;;5.37;3.00;;;22.20;69.70;;;;;;5019397;28;20538;-53
2022/10/21 12:05:14;;;;;;;4.63;2.30;;;22.20;71.40;;;;;;5050867;28;20427;-53
2022/10/21 12:07:57;;;;;;;6.77;3.00;;;22.20;70.00;;;;;;5050213;28;20423;-53
2022/10/21 12:10:23;;;;;;;7.73;2.77;;;22.10;70.30;;;;;;5051137;28;20442;-52
2022/10/21 12:12:52;;;;;;;3.47;2.47;;;22.20;69.90;;;;;;5050659;28;20439;-54
2022/10/21 12:15:24;;;;;;;4.30;2.47;;;22.10;69.40;;;;;;5049478;28;20184;-52
2022/10/21 12:17:50;;;;;;;3.93;2.43;;;22.00;69.20;;;;;;5030335;28;20932;-53
2022/10/21 12:20:26;;;;;;;3.83;2.47;;;22.20;69.20;;;;;;5030988;28;20523;-53
2022/10/21 12:23:05;;;;;;;5.97;2.73;;;22.20;69.00;;;;;;5030787;28;20420;-53
2022/10/21 12:25:48;;;;;;;2.77;2.27;;;21.90;68.30;;;;;;5028982;28;20432;-52
2022/10/21 12:28:38;;;;;;;6.57;3.40;;;22.00;69.10;;;;;;5030231;28;20817;-49
2022/10/21 12:31:22;;;;;;;3.53;2.37;;;22.00;69.40;;;;;;5030883;28;20447;-52
2022/10/21 12:33:48;;;;;;;3.80;1.90;;;21.80;69.50;;;;;;5030337;28;20428;-51
2022/10/21 12:36:23;;;;;;;4.87;1.90;;;21.80;69.80;;;;;;5030377;28;20502;-54
2022/10/21 12:38:51;;;;;;;3.03;1.80;;;21.80;68.90;;;;;;5038921;28;20415;-53
2022/10/21 12:41:23;;;;;;;3.90;1.97;;;21.90;69.30;;;;;;5036292;28;20474;-53
2022/10/21 12:44:05;;;;;;;4.13;1.90;;;21.90;69.50;;;;;;5034345;28;20763;-51
2022/10/21 12:46:40;;;;;;;3.33;1.83;;;21.80;68.80;;;;;;5033577;28;20503;-53
2022/10/21 12:49:31;;;;;;;2.80;2.33;;;21.70;69.00;;;;;;5034262;28;20477;-53
2022/10/21 12:52:13;;;;;;;1.50;1.40;;;21.50;69.20;;;;;;5032201;28;20439;-53
2022/10/21 12:54:57;;;;;;;1.57;1.10;;;21.30;67.70;;;;;;5053972;28;20427;-53